aviador You're here:

KBVE Decoded Metar

BOOTHVILLE in LA, USA
Report Time2017-09-26 02:51:00
UTC Time2017-09-26 03:42:07
Flight Rules vfr VFR
WindCalm
Visibility9999 m
Phenomena:N/A
Clouds:N/A
Expected CloudBase > 800 ft AGL from Temp-Dew spread
CeilingNone
Temp27°C (ISA +12)
Dew Point25°C (89% RH)
Heat Index30.6°C
QNH1012 hPa
Density Alt1,834 ft
Elevation3 ft
Report Wrong Elevation
Raw Report
KBVE 260251Z AUTO 00000KT 9SM CLR 27/25 A2988 RMK AO2 SLP117
T02670250 51011=

Extra information for KBVE:More info

Metar Taf Metar & Taf Last 4 Metars F.Rules Stats Wind Profile Meteogram Temp Stats Airport Information Weather charts Add Link Nearby VenuesMetar ALERT Operation Metar Decoded Social comments

AIRNAV info for KBVE